Data for 09/15/2008

Time Sea-Level Adjusted Pressure Absolute Pressure Temperature Relative Humidity Dew Point   
(mb) (inHg) (mb) (inHg) (C) (F) (%) (C) (F)
00:05 1026 30.3 855 25.25 12.2 54 44 0.3 32.6
00:10 1026 30.3 855 25.25 12.3 54.1 44 0.5 32.9
00:15 1026 30.3 855 25.25 12.4 54.3 44 0.7 33.2
00:20 1026 30.3 855 25.25 12.1 53.8 45 0.5 32.9
00:25 1026 30.3 855 25.25 12 53.6 46 0.8 33.5
00:30 1026 30.3 855 25.25 11.6 52.9 48 1.1 34
00:35 1026 30.3 855 25.25 11.2 52.2 49 0.8 33.5
00:40 1026 30.3 855 25.25 11.3 52.3 47 0.4 32.7
00:45 1026 30.3 855 25.25 11.6 52.8 47 0.8 33.5
00:50 1026 30.3 855 25.25 11.2 52.1 49 1 33.8
00:55 1026 30.3 855 25.25 11.1 52 49 0.9 33.6
01:00 1026 30.3 855 25.25 11 51.8 49 0.6 33.1
01:05 1026 30.3 855 25.25 11 51.7 50 1 33.8
01:10 1026 30.3 855 25.25 10.7 51.2 51 1 33.9
01:15 1026 30.3 855 25.25 10.4 50.8 52 1.2 34.1
01:20 1026 30.3 855 25.25 10.3 50.6 52 0.8 33.5
01:25 1026 30.3 855 25.25 10.6 51 50 0.7 33.3
01:30 1026 30.3 855 25.25 11.1 52 49 0.9 33.6
01:35 1026 30.3 855 25.25 11.1 52 49 0.7 33.3
01:40 1026 30.3 855 25.25 11.1 51.9 49 0.9 33.6
01:45 1026 30.3 855 25.25 11 51.7 49 0.8 33.5
01:50 1026 30.3 855 25.25 11 51.8 49 0.6 33.1
01:55 1026 30.3 855 25.25 11 51.7 50 1 33.8
02:00 1026 30.3 855 25.25 11 51.9 49 0.9 33.6
02:05 1026 30.3 855 25.25 11 51.7 50 1.1 33.9
02:10 1026 30.3 855 25.25 10.7 51.2 52 1.1 34
02:15 1026 30.3 855 25.25 10.3 50.6 53 1.1 34
02:20 1026 30.3 855 25.25 10.5 50.9 50 0.7 33.2
02:25 1026 30.3 855 25.25 10.9 51.5 50 0.8 33.4
02:30 1026 30.3 855 25.25 11 51.9 49 0.9 33.6
02:35 1026 30.3 855 25.25 10.8 51.5 51 1.2 34.1
02:40 1026 30.3 855 25.25 10.3 50.5 53 1.1 34
02:45 1026 30.3 855 25.25 10.2 50.4 51 0.6 33
02:50 1026 30.3 855 25.25 10.6 51.1 50 0.8 33.4
02:55 1026 30.3 855 25.25 10.8 51.5 49 0.7 33.3
03:00 1026 30.3 855 25.25 11 51.7 49 0.8 33.5
03:05 1026 30.3 855 25.25 10.8 51.4 50 0.9 33.6
03:10 1026 30.3 855 25.25 10.5 50.8 53 1.4 34.5
03:15 1026 30.3 855 25.25 10.4 50.8 54 1.5 34.7
03:20 1026 30.3 855 25.25 10.6 51.1 54 1.6 35
03:25 1026 30.3 855 25.25 10.2 50.4 53 1.2 34.2
03:30 1026 30.3 855 25.25 9.8 49.6 56 1.4 34.5
03:35 1026 30.3 855 25.25 9.5 49.1 56 1.2 34.2
03:40 1026 30.3 855 25.25 9.5 49.2 54 0.8 33.4
03:45 1026 30.3 855 25.25 9.5 49 57 1.3 34.3
03:50 1026 30.3 855 25.25 9.5 49.2 55 1 33.8
03:55 1026 30.3 855 25.25 10.1 50.1 52 0.6 33.1
04:00 1026 30.3 855 25.25 10.4 50.7 51 0.8 33.5
04:05 1026 30.3 856 25.28 10.3 50.5 51 0.6 33.1
04:10 1026 30.3 856 25.28 10.6 51 50 0.6 33.1
04:15 1026 30.3 855 25.25 10.4 50.7 52 1.1 34
04:20 1026 30.3 855 25.25 9.6 49.2 56 1.2 34.2
04:25 1026 30.3 855 25.25 9.1 48.5 58 1.3 34.3
04:30 1026 30.3 855 25.25 8.9 48 57 0.8 33.5
04:35 1026 30.3 856 25.28 9 48.2 57 0.9 33.6
04:40 1026 30.3 856 25.28 8.9 48 57 0.8 33.5
04:45 1026 30.3 856 25.28 9.3 48.7 54 0.6 33
04:50 1026 30.3 856 25.28 9.4 49 56 1 33.8
04:55 1026 30.3 855 25.25 8.9 47.9 58 1.2 34.1
05:00 1026 30.3 855 25.25 8.6 47.5 59 1 33.8
05:05 1026 30.3 855 25.25 8.6 47.5 59 1.1 34
05:10 1026 30.3 855 25.25 8.6 47.4 58 0.9 33.6
05:15 1026 30.3 855 25.25 8.6 47.5 59 1.2 34.1
05:20 1026 30.3 855 25.25 8.5 47.3 59 0.9 33.5
05:25 1026 30.3 855 25.25 8.7 47.6 57 0.8 33.4
05:30 1026 30.3 855 25.25 9 48.1 57 1 33.8
05:35 1026 30.3 855 25.25 8.6 47.6 59 1.1 34
05:40 1026 30.3 855 25.25 8.4 47 59 0.9 33.5
05:45 1026 30.3 855 25.25 8.4 47.1 59 0.8 33.4
05:50 1026 30.3 855 25.25 8.4 47 59 0.8 33.5
05:55 1026 30.3 856 25.28 8.4 47.1 59 0.8 33.5
06:00 1026 30.3 856 25.28 8.4 47.2 58 0.8 33.4
06:05 1026 30.3 856 25.28 8.5 47.2 59 0.8 33.5
06:10 1026 30.3 856 25.28 8.5 47.4 57 0.5 32.8
06:15 1026 30.3 856 25.28 8.8 47.8 56 0.6 33.1
06:20 1026 30.3 856 25.28 8.8 47.8 57 0.8 33.4
06:25 1026 30.3 855 25.25 8.6 47.4 58 0.7 33.3
06:30 1026 30.3 856 25.28 8.5 47.4 58 0.7 33.3
06:35 1026 30.3 856 25.28 8.7 47.7 57 0.6 33.1
06:40 1026 30.3 856 25.28 8.8 47.9 56 0.5 32.9
06:45 1026 30.3 856 25.28 9.2 48.6 54 0.5 32.9
06:50 1026 30.3 856 25.28 9.4 49 54 0.7 33.2
06:55 1026 30.3 856 25.28 9.2 48.5 55 0.7 33.3
07:00 1026 30.3 856 25.28 8.9 48 57 0.7 33.3
07:05 1026 30.3 856 25.28 8.6 47.4 58 0.9 33.6
07:10 1027 30.33 856 25.28 8.4 47.1 58 0.6 33.1
07:15 1026 30.3 856 25.28 8.3 46.9 58 0.6 33.1
07:20 1027 30.33 856 25.28 8.5 47.2 57 0.4 32.7
07:25 1027 30.33 856 25.28 9.1 48.4 55 0.6 33
07:30 1027 30.33 856 25.28 9.6 49.2 52 0.2 32.3
07:35 1027 30.33 856 25.28 9.9 49.9 52 0.6 33
07:40 1027 30.33 856 25.28 9.9 49.8 52 0.6 33.1
07:45 1027 30.33 856 25.28 9.9 49.8 52 0.6 33
07:50 1027 30.33 856 25.28 10 50.1 52 0.6 33.1
07:55 1027 30.33 856 25.28 10 50 52 0.8 33.4
08:00 1027 30.33 856 25.28 9.9 49.8 52 0.6 33.1
08:05 1027 30.33 856 25.28 10.1 50.1 53 0.9 33.6
08:10 1027 30.33 856 25.28 10 50 53 0.8 33.5
08:15 1027 30.33 856 25.28 10.3 50.5 51 0.6 33.1
08:20 1027 30.33 856 25.28 10.6 51.2 49 0.5 32.9
08:25 1027 30.33 856 25.28 10.9 51.7 48 0.4 32.7
08:30 1027 30.33 856 25.28 11.1 52 51 1.3 34.3
08:35 1027 30.33 856 25.28 11.4 52.6 50 1.4 34.5
08:40 1027 30.33 856 25.28 11.7 53 50 1.6 34.9
08:45 1027 30.33 856 25.28 11.9 53.4 49 1.7 35.1
08:50 1027 30.33 856 25.28 12.1 53.7 50 2.2 35.9
08:55 1027 30.33 856 25.28 12.2 53.9 51 2.3 36.1
09:00 1027 30.33 856 25.28 12.3 54.2 50 2.3 36.2
09:05 1027 30.33 856 25.28 12.4 54.3 49 2.1 35.8
09:10 1027 30.33 856 25.28 12.8 55 49 2.4 36.2
09:15 1027 30.33 856 25.28 13.4 56.1 47 2.4 36.4
09:20 1027 30.33 856 25.28 13.8 56.8 45 2.2 36
09:25 1027 30.33 856 25.28 14.7 58.5 41 1.8 35.2
09:30 1027 30.33 856 25.28 15.2 59.4 41 2.1 35.7
09:35 1027 30.33 856 25.28 15.5 60 39 1.8 35.2
09:40 1027 30.33 856 25.28 16.1 61 38 1.9 35.5
09:45 1027 30.33 856 25.28 16.1 60.9 40 2.6 36.6
09:50 1027 30.33 856 25.28 16.1 61 41 2.8 37
09:55 1027 30.33 856 25.28 15.9 60.5 42 3.2 37.8
10:00 1027 30.33 856 25.28 16 60.9 41 3 37.3
10:05 1027 30.33 856 25.28 16.1 61 40 2.7 36.8
10:10 1027 30.33 856 25.28 16.6 61.8 40 3.1 37.6
10:15 1027 30.33 856 25.28 16.5 61.7 43 4 39.2
10:20 1027 30.33 856 25.28 16 60.9 42 3.4 38.1
10:25 1027 30.33 856 25.28 16.8 62.2 40 3.3 37.9
10:30 1027 30.33 856 25.28 16.9 62.5 38 2.5 36.5
10:35 1027 30.33 856 25.28 17.6 63.7 38 3.4 38
10:40 1027 30.33 856 25.28 17.3 63.1 39 3.4 38.1
10:45 1027 30.33 856 25.28 17 62.6 38 2.6 36.6
10:50 1027 30.33 856 25.28 17.6 63.6 36 2.4 36.3
10:55 1027 30.33 856 25.28 18.2 64.7 35 2.7 36.9
11:00 1027 30.33 856 25.28 18.2 64.7 35 2.6 36.8
11:05 1027 30.33 856 25.28 18 64.4 34 1.9 35.3
11:10 1027 30.33 856 25.28 18.5 65.4 33 2.2 35.9
11:15 1027 30.33 856 25.28 18.8 65.9 33 2.3 36.1
11:20 1027 30.33 856 25.28 18.2 64.7 35 2.7 36.8
11:25 1027 30.33 856 25.28 18.8 65.9 33 2.4 36.4
11:30 1027 30.33 856 25.28 19.3 66.7 33 3 37.3
11:35 1026 30.3 856 25.28 20.1 68.1 30 2.1 35.8
11:40 1026 30.3 856 25.28 19.8 67.6 31 2.5 36.4
11:45 1026 30.3 856 25.28 19.7 67.4 32 2.7 36.9
11:50 1026 30.3 856 25.28 20 67.9 31 2.7 36.8
11:55 1026 30.3 855 25.25 20 68 31 2.4 36.4
12:00 1026 30.3 855 25.25 20.4 68.6 31 2.7 36.8
12:05 1026 30.3 855 25.25 20.2 68.4 30 2.1 35.7
12:10 1026 30.3 855 25.25 21 69.8 28 2.1 35.9
12:15 1026 30.3 855 25.25 21 69.8 29 2.5 36.5
12:20 1026 30.3 855 25.25 21.2 70.2 29 2.7 36.9
12:25 1026 30.3 855 25.25 21.3 70.4 29 2.6 36.7
12:30 1026 30.3 855 25.25 22.1 71.8 28 2.7 36.9
12:35 1026 30.3 855 25.25 22.5 72.5 26 2.3 36.1
12:40 1026 30.3 855 25.25 21.6 71 28 2.6 36.6
12:45 1026 30.3 855 25.25 21.6 70.9 27 2.2 36
12:50 1026 30.3 855 25.25 21.7 71 28 2.8 37
12:55 1026 30.3 855 25.25 22.4 72.2 25 1.7 35.1
13:00 1026 30.3 855 25.25 23.5 74.3 25 2.5 36.5
13:05 1026 30.3 855 25.25 23.7 74.6 26 3.3 37.9
13:10 1025 30.27 855 25.25 23.7 74.6 25 2.8 37.1
13:15 1025 30.27 855 25.25 23.5 74.3 25 2.5 36.5
13:20 1025 30.27 855 25.25 23.9 75 21 0.4 32.7
13:25 1025 30.27 854 25.22 23.1 73.7 23 1.2 34.1
13:30 1025 30.27 854 25.22 23.6 74.6 20 -0.3 31.5
13:35 1025 30.27 854 25.22 23.7 74.6 23 1.3 34.4
13:40 1025 30.27 854 25.22 23.9 75 22 1 33.8
13:45 1025 30.27 854 25.22 24.6 76.2 22 1.6 34.8
13:50 1025 30.27 854 25.22 24 75.2 22 1.1 34.1
13:55 1025 30.27 854 25.22 23.9 75 20 -0.4 31.3
14:00 1025 30.27 854 25.22 25 77.1 20 0.8 33.4
14:05 1025 30.27 854 25.22 25.2 77.3 20 1.1 33.9
14:10 1025 30.27 854 25.22 25.5 77.8 20 1.3 34.4
14:15 1025 30.27 854 25.22 26 78.7 19 0.5 32.9
14:20 1025 30.27 854 25.22 26.3 79.4 18 0.6 33.1
14:25 1024 30.24 854 25.22 26.3 79.4 18 0.5 32.9
14:30 1024 30.24 854 25.22 26.6 79.9 16 -1.3 29.7
14:35 1024 30.24 854 25.22 25.8 78.5 18 0.1 32.1
14:40 1024 30.24 854 25.22 25.8 78.4 14 -3.4 25.8
14:45 1024 30.24 853 25.19 26.2 79.1 15 -2.6 27.3
14:50 1024 30.24 853 25.19 25.9 78.6 15 -2.1 28.1
14:55 1024 30.24 853 25.19 26.4 79.5 14 -2.7 27.1
15:00 1024 30.24 853 25.19 26.5 79.7 14 -2.9 26.8
15:05 1024 30.24 853 25.19 26.3 79.4 13 -4.5 23.9
15:10 1024 30.24 853 25.19 25.8 78.5 12 -5.5 22.1
15:15 1024 30.24 853 25.19 26.2 79.1 13 -4.6 23.8
15:20 1024 30.24 853 25.19 26.2 79.2 13 -4.1 24.5
15:25 1024 30.24 853 25.19 25.9 78.5 12 -5.3 22.5
15:30 1024 30.24 853 25.19 25.3 77.5 12 -5.5 22.2
15:35 1024 30.24 853 25.19 25.7 78.3 13 -5 23.1
15:40 1024 30.24 853 25.19 25.6 78.1 13 -4.5 23.9
15:45 1024 30.24 853 25.19 26.2 79.2 12 -5 23
15:50 1024 30.24 853 25.19 25.6 78.2 12 -5.1 22.8
15:55 1024 30.24 853 25.19 25.7 78.2 13 -4.7 23.5
16:00 1024 30.24 853 25.19 26.4 79.5 12 -5 23.1
16:05 1024 30.24 853 25.19 26.4 79.5 12 -4.9 23.2
16:10 1024 30.24 853 25.19 26.2 79.1 13 -4.5 23.8
16:15 1024 30.24 853 25.19 26.6 79.9 12 -4.6 23.7
16:20 1023 30.21 853 25.19 26.8 80.2 12 -4.2 24.5
16:25 1023 30.21 853 25.19 27.2 81 12 -4.7 23.5
16:30 1023 30.21 853 25.19 27.1 80.7 12 -4.4 24
16:35 1023 30.21 853 25.19 27 80.6 12 -4.2 24.5
16:40 1023 30.21 852 25.16 26.5 79.6 12 -4.8 23.4
16:45 1023 30.21 852 25.16 26.8 80.3 12 -5 23.1
16:50 1023 30.21 852 25.16 27 80.5 13 -3.9 25
16:55 1023 30.21 852 25.16 27 80.6 12 -4.6 23.8
17:00 1023 30.21 852 25.16 27.1 80.7 12 -4.2 24.4
17:05 1023 30.21 852 25.16 26.7 80 13 -4.2 24.5
17:10 1023 30.21 852 25.16 27.2 81 12 -4 24.8
17:15 1023 30.21 852 25.16 27.1 80.7 13 -3.8 25.2
17:20 1023 30.21 852 25.16 26.9 80.3 13 -3.6 25.4
17:25 1023 30.21 852 25.16 27.2 81 12 -4.1 24.6
17:30 1023 30.21 852 25.16 27.3 81.2 12 -3.8 25.1
17:35 1023 30.21 852 25.16 26.9 80.5 13 -3.7 25.3
17:40 1023 30.21 852 25.16 26.7 80 12 -4.6 23.7
17:45 1023 30.21 852 25.16 26.3 79.3 13 -4 24.8
17:50 1023 30.21 852 25.16 26.4 79.6 13 -3.9 25
17:55 1023 30.21 852 25.16 26.8 80.2 13 -3.7 25.3
18:00 1023 30.21 852 25.16 26.5 79.6 13 -3.9 24.9
18:05 1023 30.21 852 25.16 26.4 79.5 13 -3.6 25.5
18:10 1023 30.21 852 25.16 26.1 79.1 13 -3.8 25.2
18:15 1023 30.21 852 25.16 26 78.8 14 -3.1 26.4
18:20 1023 30.21 852 25.16 26.2 79.2 14 -3.2 26.2
18:25 1023 30.21 852 25.16 25.7 78.2 15 -2.6 27.3
18:30 1023 30.21 852 25.16 25.4 77.6 18 -0.7 30.8
18:35 1023 30.21 852 25.16 25.3 77.5 19 0.6 33
18:40 1023 30.21 852 25.16 25.1 77.2 15 -2.7 27.2
18:45 1023 30.21 852 25.16 25 76.9 15 -3.2 26.3
18:50 1023 30.21 852 25.16 24.9 76.7 17 -1.8 28.7
18:55 1023 30.21 852 25.16 24.8 76.6 16 -2.3 27.9
19:00 1023 30.21 852 25.16 24.8 76.6 15 -3.6 25.5
19:05 1023 30.21 852 25.16 24.8 76.6 15 -3.4 25.8
19:10 1023 30.21 852 25.16 24.6 76.3 17 -1.8 28.7
19:15 1023 30.21 852 25.16 23.9 75 20 0.1 32.2
19:20 1023 30.21 852 25.16 23.1 73.6 27 3.2 37.7
19:25 1023 30.21 852 25.16 21.8 71.3 28 2.6 36.7
19:30 1023 30.21 852 25.16 21.2 70.1 28 2.1 35.7
19:35 1023 30.21 852 25.16 20.4 68.6 28 1.6 34.9
19:40 1023 30.21 852 25.16 19.8 67.6 29 1.6 34.9
19:45 1023 30.21 852 25.16 19.3 66.7 30 1.2 34.2
19:50 1023 30.21 852 25.16 18.7 65.7 32 1.6 35
19:55 1023 30.21 852 25.16 18.3 65 32 1.4 34.5
20:00 1023 30.21 852 25.16 18 64.4 33 1.5 34.7
20:05 1023 30.21 852 25.16 17.9 64.1 35 2.2 35.9
20:10 1023 30.21 852 25.16 17.8 64.1 31 0.5 33
20:15 1023 30.21 852 25.16 17.8 64 31 0.6 33.2
20:20 1023 30.21 852 25.16 17.7 63.9 33 1.4 34.5
20:25 1023 30.21 852 25.16 17.6 63.6 31 0.6 33
20:30 1023 30.21 852 25.16 17.4 63.3 33 1.1 34
20:35 1023 30.21 852 25.16 17.5 63.4 30 -0 31.9
20:40 1023 30.21 852 25.16 17.4 63.4 32 0.6 33.1
20:45 1023 30.21 852 25.16 16.8 62.3 32 0.1 32.2
20:50 1023 30.21 852 25.16 16.6 61.8 30 -0.8 30.6
20:55 1023 30.21 852 25.16 16.9 62.4 28 -1.6 29.1
21:00 1023 30.21 852 25.16 17.1 62.8 27 -1.8 28.7
21:05 1023 30.21 852 25.16 16.9 62.4 28 -1.7 29
21:10 1023 30.21 852 25.16 16.7 62 28 -1.8 28.8
21:15 1023 30.21 852 25.16 16.7 62.1 29 -1.4 29.4
21:20 1023 30.21 852 25.16 16.4 61.5 30 -1 30.1
21:25 1023 30.21 852 25.16 16.2 61.1 30 -1.2 29.9
21:30 1023 30.21 852 25.16 16.1 60.9 31 -1.1 30
21:35 1023 30.21 852 25.16 16.2 61.1 29 -1.6 29.1
21:40 1023 30.21 852 25.16 16.3 61.3 30 -1.4 29.5
21:45 1023 30.21 852 25.16 15.9 60.6 31 -1.2 29.8
21:50 1023 30.21 852 25.16 15.6 60.1 31 -1.2 29.9
21:55 1023 30.21 852 25.16 15.6 60 31 -1.5 29.3
22:00 1023 30.21 852 25.16 15.6 60 31 -1.4 29.5
22:05 1023 30.21 852 25.16 15.4 59.8 31 -1.4 29.6
22:10 1023 30.21 852 25.16 15.4 59.7 31 -1.7 29
22:15 1023 30.21 852 25.16 15.5 59.8 31 -1.4 29.5
22:20 1023 30.21 852 25.16 15.4 59.8 31 -1.5 29.3
22:25 1023 30.21 852 25.16 15.2 59.4 31 -1.5 29.3
22:30 1023 30.21 853 25.19 15.2 59.3 32 -1.5 29.2
22:35 1023 30.21 853 25.19 15.1 59.1 32 -1.5 29.3
22:40 1023 30.21 853 25.19 15 59.1 32 -1.4 29.6
22:45 1024 30.24 853 25.19 15.3 59.5 30 -2 28.5
22:50 1024 30.24 853 25.19 15.3 59.5 30 -2.1 28.2
22:55 1024 30.24 853 25.19 15.2 59.4 31 -1.9 28.6
23:00 1024 30.24 853 25.19 15 59 31 -1.9 28.6
23:05 1024 30.24 853 25.19 14.8 58.7 31 -2.1 28.3
23:10 1024 30.24 853 25.19 14.8 58.6 32 -1.6 29
23:15 1024 30.24 853 25.19 14.5 58 33 -1.6 29.1
23:20 1024 30.24 853 25.19 14.2 57.5 33 -1.7 29
23:25 1024 30.24 853 25.19 14 57.2 33 -2 28.4
23:30 1024 30.24 853 25.19 14.2 57.6 31 -2.4 27.7
23:35 1024 30.24 853 25.19 14.6 58.3 32 -1.8 28.7
23:40 1024 30.24 853 25.19 14.5 58.1 32 -1.8 28.8
23:45 1024 30.24 853 25.19 14.2 57.6 35 -1 30.1
23:50 1024 30.24 853 25.19 13.7 56.7 37 -0.6 30.9
23:55 1024 30.24 853 25.19 13.4 56.2 38 -0.4 31.2
24:00 1024 30.24 853 25.19 13.3 56 37 -0.8 30.5